createdAt,value
2023-01-02T00:04:26.165Z,98239.00
2023-01-02T00:09:47.925Z,98236.00
2023-01-02T00:15:09.941Z,98238.00
2023-01-02T00:20:31.787Z,98230.00
2023-01-02T00:25:53.310Z,98231.00
2023-01-02T00:31:15.742Z,98222.00
2023-01-02T00:36:37.348Z,98213.00
2023-01-02T00:41:58.975Z,98218.00
2023-01-02T00:47:20.697Z,98213.00
2023-01-02T00:52:42.504Z,98212.00
2023-01-02T00:58:04.243Z,98213.00
2023-01-02T01:03:25.929Z,98212.00
2023-01-02T01:08:47.695Z,98195.00
2023-01-02T01:14:09.427Z,98197.00
2023-01-02T01:19:35.967Z,98197.00
2023-01-02T01:25:01.211Z,98201.00
2023-01-02T01:30:22.929Z,98188.00
2023-01-02T01:35:44.799Z,98191.00
2023-01-02T01:41:06.919Z,98196.00
2023-01-02T01:46:44.860Z,98198.00
2023-01-02T01:52:10.599Z,98202.00
2023-01-02T01:57:45.534Z,98190.00
2023-01-02T02:03:14.243Z,98195.00
2023-01-02T02:09:01.924Z,98195.00
2023-01-02T02:14:23.606Z,98193.00
2023-01-02T02:20:06.700Z,98181.00
2023-01-02T02:25:37.541Z,98190.00
2023-01-02T02:31:21.680Z,98185.00
2023-01-02T02:37:05.369Z,98192.00
2023-01-02T02:42:50.179Z,98179.00
2023-01-02T02:48:26.261Z,98180.00
2023-01-02T02:54:03.944Z,98177.00
2023-01-02T02:59:26.334Z,98173.00
2023-01-02T03:05:02.045Z,98149.00
2023-01-02T03:10:34.016Z,98146.00
2023-01-02T03:16:08.194Z,98150.00
2023-01-02T03:21:53.121Z,98137.00
2023-01-02T03:27:24.257Z,98139.00
2023-01-02T03:33:06.372Z,98144.00
2023-01-02T03:38:39.653Z,98144.00
2023-01-02T03:44:04.481Z,98137.00
2023-01-02T03:49:42.101Z,98140.00
2023-01-02T03:55:05.674Z,98144.00
2023-01-02T04:00:36.324Z,98148.00
2023-01-02T04:06:24.298Z,98149.00
2023-01-02T04:11:50.913Z,98156.00
2023-01-02T04:17:15.095Z,98156.00
2023-01-02T04:23:06.009Z,98161.00
2023-01-02T04:28:34.747Z,98156.00
2023-01-02T04:34:00.498Z,98136.00
2023-01-02T04:39:24.702Z,98141.00
2023-01-02T04:44:46.385Z,98139.00
2023-01-02T04:50:09.135Z,98143.00
2023-01-02T04:55:31.062Z,98144.00
2023-01-02T05:00:52.715Z,98151.00
2023-01-02T05:06:14.623Z,98149.00
2023-01-02T05:11:36.835Z,98138.00
2023-01-02T05:16:58.677Z,98142.00
2023-01-02T05:22:38.833Z,98140.00
2023-01-02T05:28:01.512Z,98131.00
2023-01-02T05:33:23.120Z,98131.00
2023-01-02T05:38:44.880Z,98139.00
2023-01-02T05:44:08.915Z,98138.00
2023-01-02T05:49:30.925Z,98136.00
2023-01-02T05:54:52.685Z,98139.00
2023-01-02T06:00:14.887Z,98152.00
2023-01-02T06:05:36.653Z,98145.00
2023-01-02T06:10:58.339Z,98135.00
2023-01-02T06:16:20.468Z,98128.00
2023-01-02T06:21:42.147Z,98136.00
2023-01-02T06:27:03.679Z,98140.00
2023-01-02T06:32:25.569Z,98144.00
2023-01-02T06:37:47.291Z,98155.00
2023-01-02T06:43:08.958Z,98163.00
2023-01-02T06:48:33.977Z,98149.00
2023-01-02T06:53:57.072Z,98149.00
2023-01-02T06:59:18.571Z,98148.00
2023-01-02T07:04:40.760Z,98155.00
2023-01-02T07:10:02.804Z,98154.00
2023-01-02T07:15:24.773Z,98170.00
2023-01-02T07:20:53.457Z,98156.00
2023-01-02T07:26:15.663Z,98170.00
2023-01-02T07:31:37.579Z,98170.00
2023-01-02T07:36:59.250Z,98173.00
2023-01-02T07:42:21.125Z,98171.00
2023-01-02T07:47:42.784Z,98162.00
2023-01-02T07:53:04.688Z,98167.00
2023-01-02T07:58:26.737Z,98169.00
2023-01-02T08:03:51.782Z,98183.00
2023-01-02T08:09:13.337Z,98183.00
2023-01-02T08:14:35.136Z,98187.00
2023-01-02T08:20:03.127Z,98189.00
2023-01-02T08:25:28.868Z,98196.00
2023-01-02T08:30:50.821Z,98186.00
2023-01-02T08:36:12.846Z,98189.00
2023-01-02T08:41:37.175Z,98191.00
2023-01-02T08:46:59.021Z,98189.00
2023-01-02T08:52:20.490Z,98190.00
2023-01-02T08:57:42.279Z,98200.00
2023-01-02T09:03:04.232Z,98215.00
2023-01-02T09:08:25.881Z,98212.00
2023-01-02T09:13:47.624Z,98222.00
2023-01-02T09:19:09.326Z,98216.00
2023-01-02T09:24:31.099Z,98217.00
2023-01-02T09:29:54.092Z,98224.00
2023-01-02T09:35:16.432Z,98212.00
2023-01-02T09:40:49.757Z,98211.00
2023-01-02T09:46:23.726Z,98215.00
2023-01-02T09:51:46.737Z,98226.00
2023-01-02T09:57:27.627Z,98217.00
2023-01-02T10:03:26.633Z,98215.00
2023-01-02T10:09:12.984Z,98210.00
2023-01-02T10:14:56.409Z,98213.00
2023-01-02T10:20:39.185Z,98217.00
2023-01-02T10:26:10.900Z,98215.00
2023-01-02T10:31:40.087Z,98219.00
2023-01-02T10:37:07.790Z,98218.00
2023-01-02T10:42:33.351Z,98220.00
2023-01-02T10:47:55.362Z,98200.00
2023-01-02T10:53:37.627Z,98211.00
2023-01-02T10:59:01.121Z,98200.00
2023-01-02T11:04:25.134Z,98199.00
2023-01-02T11:09:55.998Z,98203.00
2023-01-02T11:15:29.003Z,98194.00
2023-01-02T11:20:53.800Z,98186.00
2023-01-02T11:26:26.361Z,98185.00
2023-01-02T11:31:58.122Z,98186.00
2023-01-02T11:37:21.806Z,98194.00
2023-01-02T11:43:07.625Z,98201.00
2023-01-02T11:48:29.409Z,98205.00
2023-01-02T11:53:54.376Z,98194.00
2023-01-02T11:59:36.649Z,98185.00
2023-01-02T12:04:58.746Z,98191.00
2023-01-02T12:10:38.913Z,98179.00
2023-01-02T12:16:19.679Z,98199.00
2023-01-02T12:21:50.373Z,98193.00
2023-01-02T12:27:27.149Z,98195.00
2023-01-02T12:32:54.997Z,98208.00
2023-01-02T12:38:33.332Z,98211.00
2023-01-02T12:44:15.524Z,98202.00
2023-01-02T12:49:40.482Z,98201.00
2023-01-02T12:55:20.921Z,98201.00
2023-01-02T13:01:21.095Z,98195.00
2023-01-02T13:06:59.089Z,98195.00
2023-01-02T13:12:23.208Z,98214.00
2023-01-02T13:17:51.073Z,98199.00
2023-01-02T13:23:35.543Z,98215.00
2023-01-02T13:29:09.422Z,98218.00
2023-01-02T13:34:33.136Z,98218.00
2023-01-02T13:39:59.580Z,98228.00
2023-01-02T13:45:45.818Z,98232.00
2023-01-02T13:51:15.615Z,98250.00
2023-01-02T13:57:15.756Z,98263.00
2023-01-02T14:02:37.416Z,98255.00
2023-01-02T14:08:26.143Z,98261.00
2023-01-02T14:13:51.211Z,98282.00
2023-01-02T14:19:17.642Z,98282.00
2023-01-02T14:24:49.660Z,98275.00
2023-01-02T14:30:14.888Z,98292.00
2023-01-02T14:35:40.483Z,98291.00
2023-01-02T14:41:20.513Z,98280.00
2023-01-02T14:46:42.853Z,98289.00
2023-01-02T14:52:12.042Z,98295.00
2023-01-02T14:57:38.596Z,98301.00
2023-01-02T15:03:32.337Z,98300.00
2023-01-02T15:09:00.794Z,98304.00
2023-01-02T15:14:24.232Z,98315.00
2023-01-02T15:19:46.695Z,98323.00
2023-01-02T15:25:13.487Z,98328.00
2023-01-02T15:30:40.295Z,98321.00
2023-01-02T15:36:13.927Z,98330.00
2023-01-02T15:41:42.556Z,98319.00
2023-01-02T15:47:06.515Z,98330.00
2023-01-02T15:52:32.274Z,98335.00
2023-01-02T15:57:54.870Z,98353.00
2023-01-02T16:04:03.153Z,98345.00
2023-01-02T16:09:28.240Z,98355.00
2023-01-02T16:14:53.535Z,98356.00
2023-01-02T16:20:15.139Z,98372.00
2023-01-02T16:25:47.499Z,98369.00
2023-01-02T16:31:19.421Z,98369.00
2023-01-02T16:36:41.079Z,98382.00
2023-01-02T16:42:23.019Z,98389.00
2023-01-02T16:47:45.456Z,98399.00
2023-01-02T16:53:07.655Z,98395.00
2023-01-02T16:58:30.111Z,98394.00
2023-01-02T17:03:51.234Z,98404.00
2023-01-02T17:09:12.765Z,98407.00
2023-01-02T17:14:34.528Z,98401.00
2023-01-02T17:19:55.826Z,98398.00
2023-01-02T17:25:17.662Z,98411.00
2023-01-02T17:30:45.589Z,98415.00
2023-01-02T17:36:07.807Z,98420.00
2023-01-02T17:41:29.524Z,98417.00
2023-01-02T17:47:38.749Z,98422.00
2023-01-02T17:52:32.465Z,98426.00
2023-01-02T17:57:53.946Z,98426.00
2023-01-02T18:03:15.558Z,98422.00
2023-01-02T18:08:37.992Z,98419.00
2023-01-02T18:14:00.379Z,98413.00
2023-01-02T18:19:27.642Z,98411.00
2023-01-02T18:24:50.242Z,98414.00
2023-01-02T18:30:13.380Z,98418.00
2023-01-02T18:35:56.846Z,98411.00
2023-01-02T18:41:25.257Z,98408.00
2023-01-02T18:47:03.571Z,98410.00
2023-01-02T18:52:30.053Z,98423.00
2023-01-02T18:57:56.132Z,98424.00
2023-01-02T19:03:28.423Z,98418.00
2023-01-02T19:08:50.439Z,98434.00
2023-01-02T19:14:18.459Z,98422.00
2023-01-02T19:19:40.859Z,98418.00
2023-01-02T19:25:23.894Z,98433.00
2023-01-02T19:30:45.948Z,98442.00
2023-01-02T19:36:17.488Z,98435.00
2023-01-02T19:41:57.269Z,98434.00
2023-01-02T19:47:20.092Z,98443.00
2023-01-02T19:52:41.855Z,98454.00
2023-01-02T19:58:06.308Z,98536.00
2023-01-02T20:03:27.880Z,98555.00
2023-01-02T20:08:49.851Z,98582.00
2023-01-02T20:14:11.551Z,98580.00
2023-01-02T20:19:33.833Z,98603.00
2023-01-02T20:24:56.045Z,98609.00
2023-01-02T20:30:24.006Z,98616.00
2023-01-02T20:35:46.448Z,98613.00
2023-01-02T20:41:08.150Z,98606.00
2023-01-02T20:46:29.897Z,98647.00
2023-01-02T20:51:55.839Z,98660.00
2023-01-02T20:57:17.096Z,98656.00
2023-01-02T21:02:39.125Z,98668.00
2023-01-02T21:08:00.603Z,98674.00
2023-01-02T21:13:22.259Z,98677.00
2023-01-02T21:18:43.790Z,98687.00
2023-01-02T21:24:07.891Z,98692.00
2023-01-02T21:29:29.130Z,98726.00
2023-01-02T21:34:50.766Z,98709.00
2023-01-02T21:40:12.316Z,98700.00
2023-01-02T21:45:33.672Z,98698.00
2023-01-02T21:50:55.155Z,98705.00
2023-01-02T21:56:16.721Z,98704.00
2023-01-02T22:01:38.290Z,98722.00
2023-01-02T22:12:42.088Z,98737.00
2023-01-02T22:18:03.561Z,98759.00
2023-01-02T22:23:25.048Z,98780.00
2023-01-02T22:28:46.548Z,98785.00
2023-01-02T22:34:09.113Z,98777.00
2023-01-02T22:39:30.850Z,98797.00
2023-01-02T22:44:52.752Z,98792.00
2023-01-02T22:50:21.878Z,98778.00
2023-01-02T22:55:43.306Z,98788.00
2023-01-02T23:01:17.431Z,98796.00
2023-01-02T23:07:05.129Z,98807.00
2023-01-02T23:12:19.949Z,98796.00
2023-01-02T23:17:59.798Z,98816.00
2023-01-02T23:23:21.248Z,98820.00
2023-01-02T23:34:26.454Z,98836.00
2023-01-02T23:39:47.883Z,98837.00
2023-01-02T23:45:09.848Z,98846.00
2023-01-02T23:50:31.010Z,98846.00
2023-01-02T23:55:52.674Z,98856.00
